sensor_id;sensor_type;location;lat;lon;timestamp;pressure;altitude;pressure_sealevel;temperature;humidity
11099;BME280;12223;42.650;23.364;2023-01-28T00:00:54;94043.09;;;0.55;nan
11099;BME280;12223;42.650;23.364;2023-01-28T00:03:22;94041.53;;;0.68;nan
11099;BME280;12223;42.650;23.364;2023-01-28T00:05:50;94045.81;;;0.61;nan
11099;BME280;12223;42.650;23.364;2023-01-28T00:08:18;94051.44;;;0.65;nan
11099;BME280;12223;42.650;23.364;2023-01-28T00:10:45;94060.84;;;0.66;nan
11099;BME280;12223;42.650;23.364;2023-01-28T00:13:12;94064.88;;;0.54;nan
11099;BME280;12223;42.650;23.364;2023-01-28T00:15:40;94064.00;;;0.61;nan
11099;BME280;12223;42.650;23.364;2023-01-28T00:18:06;94069.53;;;0.58;nan
11099;BME280;12223;42.650;23.364;2023-01-28T00:20:35;94065.69;;;0.54;nan
11099;BME280;12223;42.650;23.364;2023-01-28T00:23:02;94057.72;;;0.56;nan
11099;BME280;12223;42.650;23.364;2023-01-28T00:25:29;94064.88;;;0.54;nan
11099;BME280;12223;42.650;23.364;2023-01-28T00:27:56;94067.19;;;0.49;nan
11099;BME280;12223;42.650;23.364;2023-01-28T00:30:23;94068.97;;;0.48;nan
11099;BME280;12223;42.650;23.364;2023-01-28T00:32:49;94066.09;;;0.43;nan
11099;BME280;12223;42.650;23.364;2023-01-28T00:35:16;94068.88;;;0.42;nan
11099;BME280;12223;42.650;23.364;2023-01-28T00:37:45;94072.72;;;0.46;nan
11099;BME280;12223;42.650;23.364;2023-01-28T00:40:12;94065.19;;;0.36;nan
11099;BME280;12223;42.650;23.364;2023-01-28T00:42:39;94073.38;;;0.48;nan
11099;BME280;12223;42.650;23.364;2023-01-28T00:45:07;94083.88;;;0.54;nan
11099;BME280;12223;42.650;23.364;2023-01-28T00:47:34;94085.59;;;0.62;nan
11099;BME280;12223;42.650;23.364;2023-01-28T00:50:01;94080.72;;;0.59;nan
11099;BME280;12223;42.650;23.364;2023-01-28T00:52:29;94090.94;;;0.60;nan
11099;BME280;12223;42.650;23.364;2023-01-28T00:54:58;94082.78;;;0.63;nan
11099;BME280;12223;42.650;23.364;2023-01-28T00:57:25;94088.63;;;0.65;nan
11099;BME280;12223;42.650;23.364;2023-01-28T00:59:52;94091.13;;;0.59;nan
11099;BME280;12223;42.650;23.364;2023-01-28T01:02:18;94095.97;;;0.62;nan
11099;BME280;12223;42.650;23.364;2023-01-28T01:04:45;94087.47;;;0.68;nan
11099;BME280;12223;42.650;23.364;2023-01-28T01:07:21;94088.25;;;0.54;nan
11099;BME280;12223;42.650;23.364;2023-01-28T01:09:58;94085.66;;;0.54;nan
11099;BME280;12223;42.650;23.364;2023-01-28T01:12:25;94094.81;;;0.64;nan
11099;BME280;12223;42.650;23.364;2023-01-28T01:14:52;94093.28;;;0.70;nan
11099;BME280;12223;42.650;23.364;2023-01-28T01:17:19;94089.97;;;0.61;nan
11099;BME280;12223;42.650;23.364;2023-01-28T01:19:46;94100.09;;;0.71;nan
11099;BME280;12223;42.650;23.364;2023-01-28T01:22:12;94096.59;;;0.64;nan
11099;BME280;12223;42.650;23.364;2023-01-28T01:24:39;94101.25;;;0.54;nan
11099;BME280;12223;42.650;23.364;2023-01-28T01:27:07;94097.03;;;0.53;nan
11099;BME280;12223;42.650;23.364;2023-01-28T01:29:34;94092.00;;;0.51;nan
11099;BME280;12223;42.650;23.364;2023-01-28T01:32:01;94089.34;;;0.59;nan
11099;BME280;12223;42.650;23.364;2023-01-28T01:34:27;94094.41;;;0.75;nan
11099;BME280;12223;42.650;23.364;2023-01-28T01:36:54;94097.78;;;0.61;nan
11099;BME280;12223;42.650;23.364;2023-01-28T01:39:21;94106.66;;;0.67;nan
11099;BME280;12223;42.650;23.364;2023-01-28T01:41:48;94102.44;;;0.66;nan
11099;BME280;12223;42.650;23.364;2023-01-28T01:44:51;94103.88;;;0.68;nan
11099;BME280;12223;42.650;23.364;2023-01-28T01:47:20;94095.41;;;0.52;nan
11099;BME280;12223;42.650;23.364;2023-01-28T01:49:48;94090.78;;;0.62;nan
11099;BME280;12223;42.650;23.364;2023-01-28T01:52:19;94086.63;;;0.53;nan
11099;BME280;12223;42.650;23.364;2023-01-28T01:54:50;94093.59;;;0.52;nan
11099;BME280;12223;42.650;23.364;2023-01-28T01:57:21;94097.13;;;0.59;nan
11099;BME280;12223;42.650;23.364;2023-01-28T01:59:51;94092.81;;;0.52;nan
11099;BME280;12223;42.650;23.364;2023-01-28T02:02:19;94096.47;;;0.57;nan
11099;BME280;12223;42.650;23.364;2023-01-28T02:04:46;94111.50;;;0.47;nan
11099;BME280;12223;42.650;23.364;2023-01-28T02:07:15;94104.28;;;0.57;nan
11099;BME280;12223;42.650;23.364;2023-01-28T02:09:42;94110.53;;;0.48;nan
11099;BME280;12223;42.650;23.364;2023-01-28T02:12:11;94105.41;;;0.63;nan
11099;BME280;12223;42.650;23.364;2023-01-28T02:14:42;94106.75;;;0.51;nan
11099;BME280;12223;42.650;23.364;2023-01-28T02:17:12;94110.00;;;0.53;nan
11099;BME280;12223;42.650;23.364;2023-01-28T02:19:43;94112.78;;;0.51;nan
11099;BME280;12223;42.650;23.364;2023-01-28T02:28:37;94119.06;;;0.34;nan
11099;BME280;12223;42.650;23.364;2023-01-28T02:31:11;94115.13;;;0.38;nan
11099;BME280;12223;42.650;23.364;2023-01-28T02:33:43;94115.94;;;0.38;nan
11099;BME280;12223;42.650;23.364;2023-01-28T02:36:19;94120.97;;;0.40;nan
11099;BME280;12223;42.650;23.364;2023-01-28T02:38:49;94114.75;;;0.49;nan
11099;BME280;12223;42.650;23.364;2023-01-28T02:41:22;94081.97;;;0.25;nan
11099;BME280;12223;42.650;23.364;2023-01-28T02:43:52;94128.31;;;0.36;nan
11099;BME280;12223;42.650;23.364;2023-01-28T02:46:21;94120.81;;;0.42;nan
11099;BME280;12223;42.650;23.364;2023-01-28T02:49:10;94125.16;;;0.49;nan
11099;BME280;12223;42.650;23.364;2023-01-28T02:52:04;94130.84;;;0.45;nan
11099;BME280;12223;42.650;23.364;2023-01-28T02:54:39;94122.94;;;0.38;nan
11099;BME280;12223;42.650;23.364;2023-01-28T02:57:17;94126.69;;;0.35;nan
11099;BME280;12223;42.650;23.364;2023-01-28T02:59:51;94125.19;;;0.41;nan
11099;BME280;12223;42.650;23.364;2023-01-28T03:02:26;94126.53;;;0.37;nan
11099;BME280;12223;42.650;23.364;2023-01-28T03:04:59;94121.91;;;0.47;nan
11099;BME280;12223;42.650;23.364;2023-01-28T03:07:30;94132.47;;;0.46;nan
11099;BME280;12223;42.650;23.364;2023-01-28T03:10:01;94136.28;;;0.35;nan
11099;BME280;12223;42.650;23.364;2023-01-28T03:12:31;94127.63;;;0.43;nan
11099;BME280;12223;42.650;23.364;2023-01-28T03:15:19;94136.69;;;0.24;nan
11099;BME280;12223;42.650;23.364;2023-01-28T03:18:07;94127.41;;;0.29;nan
11099;BME280;12223;42.650;23.364;2023-01-28T03:20:56;94126.22;;;0.32;nan
11099;BME280;12223;42.650;23.364;2023-01-28T03:23:47;94135.47;;;0.34;nan
11099;BME280;12223;42.650;23.364;2023-01-28T03:26:37;94139.41;;;0.30;nan
11099;BME280;12223;42.650;23.364;2023-01-28T03:29:24;94139.72;;;0.27;nan
11099;BME280;12223;42.650;23.364;2023-01-28T03:32:11;94132.34;;;0.16;nan
11099;BME280;12223;42.650;23.364;2023-01-28T03:34:56;94137.41;;;0.32;nan
11099;BME280;12223;42.650;23.364;2023-01-28T03:37:40;94142.72;;;0.39;nan
11099;BME280;12223;42.650;23.364;2023-01-28T03:40:09;94141.59;;;0.42;nan
11099;BME280;12223;42.650;23.364;2023-01-28T03:42:35;94141.31;;;0.36;nan
11099;BME280;12223;42.650;23.364;2023-01-28T03:45:03;94139.03;;;0.11;nan
11099;BME280;12223;42.650;23.364;2023-01-28T03:47:33;94130.16;;;0.28;nan
11099;BME280;12223;42.650;23.364;2023-01-28T03:50:00;94136.41;;;0.19;nan
11099;BME280;12223;42.650;23.364;2023-01-28T03:52:28;94130.81;;;0.30;nan
11099;BME280;12223;42.650;23.364;2023-01-28T03:54:56;94123.94;;;0.37;nan
11099;BME280;12223;42.650;23.364;2023-01-28T03:57:25;94137.78;;;0.29;nan
11099;BME280;12223;42.650;23.364;2023-01-28T03:59:52;94138.03;;;0.43;nan
11099;BME280;12223;42.650;23.364;2023-01-28T04:02:20;94145.28;;;0.47;nan
11099;BME280;12223;42.650;23.364;2023-01-28T04:04:49;94149.66;;;0.47;nan
11099;BME280;12223;42.650;23.364;2023-01-28T04:07:16;94155.63;;;0.55;nan
11099;BME280;12223;42.650;23.364;2023-01-28T04:09:45;94154.88;;;0.47;nan
11099;BME280;12223;42.650;23.364;2023-01-28T04:12:11;94160.78;;;0.32;nan
11099;BME280;12223;42.650;23.364;2023-01-28T04:14:39;94167.66;;;0.25;nan
11099;BME280;12223;42.650;23.364;2023-01-28T04:17:06;94164.88;;;0.27;nan
11099;BME280;12223;42.650;23.364;2023-01-28T04:19:35;94170.56;;;0.30;nan
11099;BME280;12223;42.650;23.364;2023-01-28T04:22:05;94169.75;;;0.30;nan
11099;BME280;12223;42.650;23.364;2023-01-28T04:24:32;94173.97;;;0.31;nan
11099;BME280;12223;42.650;23.364;2023-01-28T04:26:59;94165.75;;;0.19;nan
11099;BME280;12223;42.650;23.364;2023-01-28T04:29:25;94182.47;;;0.17;nan
11099;BME280;12223;42.650;23.364;2023-01-28T04:31:52;94168.16;;;0.21;nan
11099;BME280;12223;42.650;23.364;2023-01-28T04:34:19;94175.16;;;0.20;nan
11099;BME280;12223;42.650;23.364;2023-01-28T04:36:46;94172.94;;;0.09;nan
11099;BME280;12223;42.650;23.364;2023-01-28T04:39:14;94175.91;;;0.06;nan
11099;BME280;12223;42.650;23.364;2023-01-28T04:41:41;94178.72;;;0.19;nan
11099;BME280;12223;42.650;23.364;2023-01-28T04:44:07;94176.78;;;0.21;nan
11099;BME280;12223;42.650;23.364;2023-01-28T04:46:34;94182.31;;;0.18;nan
11099;BME280;12223;42.650;23.364;2023-01-28T04:49:01;94189.91;;;0.20;nan
11099;BME280;12223;42.650;23.364;2023-01-28T04:51:28;94184.28;;;0.16;nan
11099;BME280;12223;42.650;23.364;2023-01-28T04:53:55;94170.06;;;0.04;nan
11099;BME280;12223;42.650;23.364;2023-01-28T04:56:23;94179.91;;;0.09;nan
11099;BME280;12223;42.650;23.364;2023-01-28T04:58:50;94181.72;;;0.08;nan
11099;BME280;12223;42.650;23.364;2023-01-28T05:01:17;94177.88;;;-0.04;nan
11099;BME280;12223;42.650;23.364;2023-01-28T05:03:43;94178.00;;;0.03;nan
11099;BME280;12223;42.650;23.364;2023-01-28T05:06:10;94171.06;;;-0.05;nan
11099;BME280;12223;42.650;23.364;2023-01-28T05:08:37;94182.25;;;-0.05;nan
11099;BME280;12223;42.650;23.364;2023-01-28T05:11:04;94178.69;;;-0.04;nan
11099;BME280;12223;42.650;23.364;2023-01-28T05:13:32;94169.97;;;-0.19;nan
11099;BME280;12223;42.650;23.364;2023-01-28T05:15:59;94181.28;;;-0.04;nan
11099;BME280;12223;42.650;23.364;2023-01-28T05:18:26;94184.53;;;-0.02;nan
11099;BME280;12223;42.650;23.364;2023-01-28T05:20:52;94187.78;;;-0.08;nan
11099;BME280;12223;42.650;23.364;2023-01-28T05:23:19;94152.81;;;-0.20;nan
11099;BME280;12223;42.650;23.364;2023-01-28T05:25:46;94186.63;;;-0.05;nan
11099;BME280;12223;42.650;23.364;2023-01-28T05:28:13;94204.31;;;-0.01;nan
11099;BME280;12223;42.650;23.364;2023-01-28T05:30:43;94192.78;;;-0.06;nan
11099;BME280;12223;42.650;23.364;2023-01-28T05:33:10;94200.91;;;-0.01;nan
11099;BME280;12223;42.650;23.364;2023-01-28T05:35:37;94200.56;;;0.02;nan
11099;BME280;12223;42.650;23.364;2023-01-28T05:38:04;94210.97;;;-0.06;nan
11099;BME280;12223;42.650;23.364;2023-01-28T05:40:31;94208.84;;;0.06;nan
11099;BME280;12223;42.650;23.364;2023-01-28T05:42:58;94221.47;;;0.09;nan
11099;BME280;12223;42.650;23.364;2023-01-28T05:45:25;94213.66;;;0.09;nan
11099;BME280;12223;42.650;23.364;2023-01-28T05:47:53;94226.47;;;0.18;nan
11099;BME280;12223;42.650;23.364;2023-01-28T05:50:20;94225.81;;;0.16;nan
11099;BME280;12223;42.650;23.364;2023-01-28T05:52:46;94226.47;;;0.10;nan
11099;BME280;12223;42.650;23.364;2023-01-28T05:55:13;94233.09;;;0.13;nan
11099;BME280;12223;42.650;23.364;2023-01-28T05:57:40;94236.72;;;0.04;nan
11099;BME280;12223;42.650;23.364;2023-01-28T06:00:10;94241.72;;;0.13;nan
11099;BME280;12223;42.650;23.364;2023-01-28T06:02:36;94249.63;;;0.20;nan
11099;BME280;12223;42.650;23.364;2023-01-28T06:05:05;94255.34;;;0.15;nan
11099;BME280;12223;42.650;23.364;2023-01-28T06:07:32;94268.00;;;0.18;nan
11099;BME280;12223;42.650;23.364;2023-01-28T06:09:59;94267.94;;;0.26;nan
11099;BME280;12223;42.650;23.364;2023-01-28T06:12:26;94274.88;;;0.42;nan
11099;BME280;12223;42.650;23.364;2023-01-28T06:14:52;94272.97;;;0.28;nan
11099;BME280;12223;42.650;23.364;2023-01-28T06:17:19;94283.72;;;0.25;nan
11099;BME280;12223;42.650;23.364;2023-01-28T06:19:46;94284.47;;;0.33;nan
11099;BME280;12223;42.650;23.364;2023-01-28T06:22:14;94283.66;;;0.33;nan
11099;BME280;12223;42.650;23.364;2023-01-28T06:24:41;94282.81;;;0.40;nan
11099;BME280;12223;42.650;23.364;2023-01-28T06:27:07;94291.75;;;0.38;nan
11099;BME280;12223;42.650;23.364;2023-01-28T06:29:34;94295.06;;;0.24;nan
11099;BME280;12223;42.650;23.364;2023-01-28T06:32:01;94304.66;;;0.15;nan
11099;BME280;12223;42.650;23.364;2023-01-28T06:34:28;94301.38;;;0.29;nan
11099;BME280;12223;42.650;23.364;2023-01-28T06:36:55;94304.81;;;0.22;nan
11099;BME280;12223;42.650;23.364;2023-01-28T06:39:23;94301.75;;;0.18;nan
11099;BME280;12223;42.650;23.364;2023-01-28T06:41:51;94309.81;;;0.31;nan
11099;BME280;12223;42.650;23.364;2023-01-28T06:44:18;94263.50;;;0.04;nan
11099;BME280;12223;42.650;23.364;2023-01-28T06:46:45;94308.13;;;0.47;nan
11099;BME280;12223;42.650;23.364;2023-01-28T06:49:12;94302.88;;;0.24;nan
11099;BME280;12223;42.650;23.364;2023-01-28T06:51:39;94330.22;;;0.43;nan
11099;BME280;12223;42.650;23.364;2023-01-28T06:54:06;94331.84;;;0.44;nan
11099;BME280;12223;42.650;23.364;2023-01-28T06:56:34;94334.75;;;0.49;nan
11099;BME280;12223;42.650;23.364;2023-01-28T06:59:01;94339.00;;;0.33;nan
11099;BME280;12223;42.650;23.364;2023-01-28T07:01:29;94336.78;;;0.30;nan
11099;BME280;12223;42.650;23.364;2023-01-28T07:03:56;94341.00;;;0.23;nan
11099;BME280;12223;42.650;23.364;2023-01-28T07:06:23;94345.19;;;0.32;nan
11099;BME280;12223;42.650;23.364;2023-01-28T07:08:52;94334.63;;;0.34;nan
11099;BME280;12223;42.650;23.364;2023-01-28T07:11:20;94350.84;;;0.44;nan
11099;BME280;12223;42.650;23.364;2023-01-28T07:13:48;94351.69;;;0.36;nan
11099;BME280;12223;42.650;23.364;2023-01-28T07:16:15;94358.97;;;0.41;nan
11099;BME280;12223;42.650;23.364;2023-01-28T07:18:42;94361.53;;;0.49;nan
11099;BME280;12223;42.650;23.364;2023-01-28T07:21:09;94368.22;;;0.44;nan
11099;BME280;12223;42.650;23.364;2023-01-28T07:23:37;94362.97;;;0.52;nan
11099;BME280;12223;42.650;23.364;2023-01-28T07:26:06;94374.34;;;0.51;nan
11099;BME280;12223;42.650;23.364;2023-01-28T07:28:33;94384.94;;;0.41;nan
11099;BME280;12223;42.650;23.364;2023-01-28T07:31:01;94386.69;;;0.49;nan
11099;BME280;12223;42.650;23.364;2023-01-28T07:33:28;94386.88;;;0.47;nan
11099;BME280;12223;42.650;23.364;2023-01-28T07:35:56;94381.16;;;0.52;nan
11099;BME280;12223;42.650;23.364;2023-01-28T07:38:23;94396.13;;;0.42;nan
11099;BME280;12223;42.650;23.364;2023-01-28T07:40:51;94397.41;;;0.46;nan
11099;BME280;12223;42.650;23.364;2023-01-28T07:43:18;94394.97;;;0.52;nan
11099;BME280;12223;42.650;23.364;2023-01-28T07:45:45;94392.50;;;0.59;nan
11099;BME280;12223;42.650;23.364;2023-01-28T07:48:13;94396.34;;;0.71;nan
11099;BME280;12223;42.650;23.364;2023-01-28T07:50:41;94399.31;;;0.68;nan
11099;BME280;12223;42.650;23.364;2023-01-28T07:53:09;94395.06;;;0.75;nan
11099;BME280;12223;42.650;23.364;2023-01-28T07:55:38;94396.41;;;0.63;nan
11099;BME280;12223;42.650;23.364;2023-01-28T07:58:09;94415.34;;;0.79;nan
11099;BME280;12223;42.650;23.364;2023-01-28T08:00:37;94409.84;;;0.74;nan
11099;BME280;12223;42.650;23.364;2023-01-28T08:03:11;94416.00;;;0.82;nan
11099;BME280;12223;42.650;23.364;2023-01-28T08:05:43;94400.56;;;0.80;nan
11099;BME280;12223;42.650;23.364;2023-01-28T08:08:12;94409.63;;;0.84;nan
11099;BME280;12223;42.650;23.364;2023-01-28T08:10:39;94414.38;;;0.72;nan
11099;BME280;12223;42.650;23.364;2023-01-28T08:13:09;94419.84;;;0.86;nan
11099;BME280;12223;42.650;23.364;2023-01-28T08:15:37;94422.75;;;0.91;nan
11099;BME280;12223;42.650;23.364;2023-01-28T08:18:07;94426.84;;;0.85;nan
11099;BME280;12223;42.650;23.364;2023-01-28T08:20:34;94425.75;;;0.71;nan
11099;BME280;12223;42.650;23.364;2023-01-28T08:23:07;94423.09;;;0.88;nan
11099;BME280;12223;42.650;23.364;2023-01-28T08:25:34;94408.09;;;0.59;nan
11099;BME280;12223;42.650;23.364;2023-01-28T08:28:02;94427.97;;;0.82;nan
11099;BME280;12223;42.650;23.364;2023-01-28T08:30:29;94440.78;;;0.92;nan
11099;BME280;12223;42.650;23.364;2023-01-28T08:32:56;94424.53;;;0.90;nan
11099;BME280;12223;42.650;23.364;2023-01-28T08:35:26;94429.19;;;1.03;nan
11099;BME280;12223;42.650;23.364;2023-01-28T08:37:53;94432.31;;;0.98;nan
11099;BME280;12223;42.650;23.364;2023-01-28T08:40:21;94440.09;;;1.06;nan
11099;BME280;12223;42.650;23.364;2023-01-28T08:42:49;94435.06;;;1.05;nan
11099;BME280;12223;42.650;23.364;2023-01-28T08:45:17;94444.06;;;1.25;nan
11099;BME280;12223;42.650;23.364;2023-01-28T08:47:47;94444.38;;;1.22;nan
11099;BME280;12223;42.650;23.364;2023-01-28T08:50:15;94442.22;;;1.34;nan
11099;BME280;12223;42.650;23.364;2023-01-28T08:52:43;94433.56;;;1.41;nan
11099;BME280;12223;42.650;23.364;2023-01-28T08:55:12;94446.16;;;1.52;nan
11099;BME280;12223;42.650;23.364;2023-01-28T08:57:40;94436.03;;;1.35;nan
11099;BME280;12223;42.650;23.364;2023-01-28T09:00:08;94446.69;;;1.48;nan
11099;BME280;12223;42.650;23.364;2023-01-28T09:02:36;94448.63;;;1.46;nan
11099;BME280;12223;42.650;23.364;2023-01-28T09:05:10;94446.03;;;1.15;nan
11099;BME280;12223;42.650;23.364;2023-01-28T09:07:38;94446.09;;;1.38;nan
11099;BME280;12223;42.650;23.364;2023-01-28T09:10:07;94450.22;;;1.55;nan
11099;BME280;12223;42.650;23.364;2023-01-28T09:12:35;94445.91;;;1.39;nan
11099;BME280;12223;42.650;23.364;2023-01-28T09:15:04;94455.03;;;1.66;nan
11099;BME280;12223;42.650;23.364;2023-01-28T09:17:31;94468.53;;;1.92;nan
11099;BME280;12223;42.650;23.364;2023-01-28T09:19:58;94461.81;;;2.21;nan
11099;BME280;12223;42.650;23.364;2023-01-28T09:22:25;94464.63;;;2.34;nan
11099;BME280;12223;42.650;23.364;2023-01-28T09:24:52;94436.56;;;2.36;nan
11099;BME280;12223;42.650;23.364;2023-01-28T09:27:19;94462.84;;;2.49;nan
11099;BME280;12223;42.650;23.364;2023-01-28T09:29:45;94451.75;;;2.47;nan
11099;BME280;12223;42.650;23.364;2023-01-28T09:32:13;94454.50;;;2.68;nan
11099;BME280;12223;42.650;23.364;2023-01-28T09:34:43;94455.19;;;2.33;nan
11099;BME280;12223;42.650;23.364;2023-01-28T09:37:10;94463.09;;;2.02;nan
11099;BME280;12223;42.650;23.364;2023-01-28T09:39:37;94456.44;;;1.99;nan
11099;BME280;12223;42.650;23.364;2023-01-28T09:42:17;94456.25;;;2.01;nan
11099;BME280;12223;42.650;23.364;2023-01-28T09:45:00;94455.16;;;1.95;nan
11099;BME280;12223;42.650;23.364;2023-01-28T09:47:34;94446.63;;;2.24;nan
11099;BME280;12223;42.650;23.364;2023-01-28T09:50:04;94439.28;;;2.42;nan
11099;BME280;12223;42.650;23.364;2023-01-28T09:52:34;94458.50;;;2.41;nan
11099;BME280;12223;42.650;23.364;2023-01-28T09:55:05;94458.81;;;2.47;nan
11099;BME280;12223;42.650;23.364;2023-01-28T09:57:37;94449.41;;;1.77;nan
11099;BME280;12223;42.650;23.364;2023-01-28T10:00:11;94456.31;;;1.93;nan
11099;BME280;12223;42.650;23.364;2023-01-28T10:03:01;94454.75;;;2.07;nan
11099;BME280;12223;42.650;23.364;2023-01-28T10:05:41;94453.72;;;1.93;nan
11099;BME280;12223;42.650;23.364;2023-01-28T10:08:27;94448.66;;;1.91;nan
11099;BME280;12223;42.650;23.364;2023-01-28T10:11:04;94453.72;;;1.70;nan
11099;BME280;12223;42.650;23.364;2023-01-28T10:13:44;94443.09;;;1.72;nan
11099;BME280;12223;42.650;23.364;2023-01-28T10:16:19;94449.63;;;1.76;nan
11099;BME280;12223;42.650;23.364;2023-01-28T10:18:54;94439.41;;;1.66;nan
11099;BME280;12223;42.650;23.364;2023-01-28T10:21:25;94449.00;;;1.43;nan
11099;BME280;12223;42.650;23.364;2023-01-28T10:23:58;94448.84;;;1.67;nan
11099;BME280;12223;42.650;23.364;2023-01-28T10:26:31;94442.50;;;1.70;nan
11099;BME280;12223;42.650;23.364;2023-01-28T10:29:03;94435.66;;;1.69;nan
11099;BME280;12223;42.650;23.364;2023-01-28T10:31:34;94449.00;;;1.66;nan
11099;BME280;12223;42.650;23.364;2023-01-28T10:34:04;94433.53;;;1.95;nan
11099;BME280;12223;42.650;23.364;2023-01-28T10:36:31;94443.91;;;2.18;nan
11099;BME280;12223;42.650;23.364;2023-01-28T10:38:58;94447.16;;;2.20;nan
11099;BME280;12223;42.650;23.364;2023-01-28T10:41:25;94447.69;;;2.30;nan
11099;BME280;12223;42.650;23.364;2023-01-28T10:43:52;94440.06;;;2.28;nan
11099;BME280;12223;42.650;23.364;2023-01-28T10:46:21;94452.38;;;2.34;nan
11099;BME280;12223;42.650;23.364;2023-01-28T10:48:55;94445.94;;;2.45;nan
11099;BME280;12223;42.650;23.364;2023-01-28T10:51:32;94441.56;;;2.75;nan
11099;BME280;12223;42.650;23.364;2023-01-28T10:53:59;94436.97;;;2.62;nan
11099;BME280;12223;42.650;23.364;2023-01-28T10:56:29;94434.88;;;2.43;nan
11099;BME280;12223;42.650;23.364;2023-01-28T10:58:59;94442.66;;;2.14;nan
11099;BME280;12223;42.650;23.364;2023-01-28T11:01:38;94443.03;;;2.25;nan
11099;BME280;12223;42.650;23.364;2023-01-28T11:04:05;94445.09;;;1.92;nan
11099;BME280;12223;42.650;23.364;2023-01-28T11:06:34;94440.94;;;1.83;nan
11099;BME280;12223;42.650;23.364;2023-01-28T11:09:01;94437.44;;;1.45;nan
11099;BME280;12223;42.650;23.364;2023-01-28T11:11:27;94440.88;;;1.69;nan
11099;BME280;12223;42.650;23.364;2023-01-28T11:13:55;94439.81;;;1.78;nan
11099;BME280;12223;42.650;23.364;2023-01-28T11:16:23;94439.91;;;1.70;nan
11099;BME280;12223;42.650;23.364;2023-01-28T11:18:52;94431.44;;;1.68;nan
11099;BME280;12223;42.650;23.364;2023-01-28T11:21:21;94442.31;;;1.71;nan
11099;BME280;12223;42.650;23.364;2023-01-28T11:23:53;94434.78;;;1.53;nan
11099;BME280;12223;42.650;23.364;2023-01-28T11:26:23;94437.22;;;2.00;nan
11099;BME280;12223;42.650;23.364;2023-01-28T11:28:51;94439.50;;;2.18;nan
11099;BME280;12223;42.650;23.364;2023-01-28T11:31:19;94439.53;;;2.48;nan
11099;BME280;12223;42.650;23.364;2023-01-28T11:33:49;94435.00;;;2.64;nan
11099;BME280;12223;42.650;23.364;2023-01-28T11:36:20;94423.13;;;2.62;nan
11099;BME280;12223;42.650;23.364;2023-01-28T11:38:51;94445.06;;;2.82;nan
11099;BME280;12223;42.650;23.364;2023-01-28T11:41:24;94435.34;;;2.76;nan
11099;BME280;12223;42.650;23.364;2023-01-28T11:43:51;94441.19;;;2.93;nan
11099;BME280;12223;42.650;23.364;2023-01-28T11:46:45;94439.22;;;3.09;nan
11099;BME280;12223;42.650;23.364;2023-01-28T11:49:20;94431.41;;;2.95;nan
11099;BME280;12223;42.650;23.364;2023-01-28T11:51:57;94433.38;;;2.78;nan
11099;BME280;12223;42.650;23.364;2023-01-28T11:54:38;94438.13;;;2.74;nan
11099;BME280;12223;42.650;23.364;2023-01-28T11:57:19;94434.63;;;2.67;nan
11099;BME280;12223;42.650;23.364;2023-01-28T12:00:01;94435.63;;;2.52;nan
11099;BME280;12223;42.650;23.364;2023-01-28T12:02:50;94433.22;;;2.65;nan
11099;BME280;12223;42.650;23.364;2023-01-28T12:08:19;94441.91;;;2.87;nan
11099;BME280;12223;42.650;23.364;2023-01-28T12:10:56;94437.13;;;3.05;nan
11099;BME280;12223;42.650;23.364;2023-01-28T12:13:38;94437.09;;;3.34;nan
11099;BME280;12223;42.650;23.364;2023-01-28T12:16:36;94441.31;;;3.35;nan
11099;BME280;12223;42.650;23.364;2023-01-28T12:19:15;94443.53;;;2.88;nan
11099;BME280;12223;42.650;23.364;2023-01-28T12:21:55;94448.84;;;3.09;nan
11099;BME280;12223;42.650;23.364;2023-01-28T12:24:42;94444.88;;;3.13;nan
11099;BME280;12223;42.650;23.364;2023-01-28T12:27:25;94441.78;;;3.24;nan
11099;BME280;12223;42.650;23.364;2023-01-28T12:30:05;94450.44;;;3.24;nan
11099;BME280;12223;42.650;23.364;2023-01-28T12:32:49;94450.16;;;3.19;nan
11099;BME280;12223;42.650;23.364;2023-01-28T12:35:26;94443.56;;;2.21;nan
11099;BME280;12223;42.650;23.364;2023-01-28T12:38:07;94445.69;;;2.17;nan
11099;BME280;12223;42.650;23.364;2023-01-28T12:40:46;94449.97;;;2.10;nan
11099;BME280;12223;42.650;23.364;2023-01-28T12:43:21;94454.75;;;2.44;nan
11099;BME280;12223;42.650;23.364;2023-01-28T12:45:54;94447.94;;;2.72;nan
11099;BME280;12223;42.650;23.364;2023-01-28T12:48:25;94450.47;;;2.80;nan
11099;BME280;12223;42.650;23.364;2023-01-28T12:50:57;94456.81;;;2.49;nan
11099;BME280;12223;42.650;23.364;2023-01-28T12:53:32;94462.28;;;2.01;nan
11099;BME280;12223;42.650;23.364;2023-01-28T12:56:07;94468.22;;;2.10;nan
11099;BME280;12223;42.650;23.364;2023-01-28T12:58:39;94458.22;;;2.36;nan
11099;BME280;12223;42.650;23.364;2023-01-28T13:01:13;94469.63;;;2.21;nan
11099;BME280;12223;42.650;23.364;2023-01-28T13:03:48;94467.16;;;2.57;nan
11099;BME280;12223;42.650;23.364;2023-01-28T13:06:22;94463.47;;;2.66;nan
11099;BME280;12223;42.650;23.364;2023-01-28T13:08:55;94468.97;;;2.56;nan
11099;BME280;12223;42.650;23.364;2023-01-28T13:11:31;94468.63;;;2.59;nan
11099;BME280;12223;42.650;23.364;2023-01-28T13:14:01;94472.81;;;2.60;nan
11099;BME280;12223;42.650;23.364;2023-01-28T13:16:29;94447.66;;;2.53;nan
11099;BME280;12223;42.650;23.364;2023-01-28T13:19:05;94483.28;;;2.75;nan
11099;BME280;12223;42.650;23.364;2023-01-28T13:21:34;94483.28;;;2.75;nan
11099;BME280;12223;42.650;23.364;2023-01-28T13:24:18;94482.31;;;2.91;nan
11099;BME280;12223;42.650;23.364;2023-01-28T13:26:47;94486.50;;;2.92;nan
11099;BME280;12223;42.650;23.364;2023-01-28T13:29:28;94482.84;;;3.01;nan
11099;BME280;12223;42.650;23.364;2023-01-28T13:31:57;94489.84;;;2.86;nan
11099;BME280;12223;42.650;23.364;2023-01-28T13:34:31;94491.16;;;2.52;nan
11099;BME280;12223;42.650;23.364;2023-01-28T13:37:02;94479.75;;;2.68;nan
11099;BME280;12223;42.650;23.364;2023-01-28T13:39:30;94492.72;;;2.76;nan
11099;BME280;12223;42.650;23.364;2023-01-28T13:42:19;94494.25;;;2.70;nan
11099;BME280;12223;42.650;23.364;2023-01-28T13:44:48;94504.38;;;2.51;nan
11099;BME280;12223;42.650;23.364;2023-01-28T13:47:22;94498.94;;;2.37;nan
11099;BME280;12223;42.650;23.364;2023-01-28T13:49:54;94505.78;;;2.53;nan